createdAt,value
2023-02-08T00:02:22.865Z,0.40
2023-02-08T00:04:49.644Z,0.30
2023-02-08T00:07:16.088Z,0.30
2023-02-08T00:09:42.496Z,0.20
2023-02-08T00:12:08.996Z,0.20
2023-02-08T00:14:35.463Z,0.30
2023-02-08T00:17:01.854Z,0.30
2023-02-08T00:19:28.245Z,0.30
2023-02-08T00:21:54.688Z,0.30
2023-02-08T00:24:21.130Z,0.30
2023-02-08T00:26:47.903Z,0.30
2023-02-08T00:29:14.295Z,0.30
2023-02-08T00:31:40.760Z,0.30
2023-02-08T00:34:07.185Z,0.30
2023-02-08T00:36:33.582Z,0.20
2023-02-08T00:38:59.961Z,0.20
2023-02-08T00:41:26.378Z,0.30
2023-02-08T00:43:52.760Z,0.30
2023-02-08T00:46:19.231Z,0.30
2023-02-08T00:48:45.816Z,0.30
2023-02-08T00:51:12.243Z,0.30
2023-02-08T00:53:38.643Z,0.20
2023-02-08T00:56:05.010Z,0.20
2023-02-08T00:58:31.443Z,0.20
2023-02-08T01:00:58.073Z,0.20
2023-02-08T01:03:24.538Z,0.20
2023-02-08T01:05:50.921Z,0.30
2023-02-08T01:08:17.368Z,0.30
2023-02-08T01:10:43.932Z,0.30
2023-02-08T01:13:10.307Z,0.30
2023-02-08T01:15:36.694Z,0.30
2023-02-08T01:18:03.120Z,0.30
2023-02-08T01:20:29.512Z,0.30
2023-02-08T01:22:55.880Z,0.20
2023-02-08T01:25:22.260Z,0.20
2023-02-08T01:27:48.821Z,0.30
2023-02-08T01:30:15.277Z,0.30
2023-02-08T01:32:41.755Z,0.30
2023-02-08T01:35:08.170Z,0.30
2023-02-08T01:37:34.584Z,0.30
2023-02-08T01:40:01.176Z,0.20
2023-02-08T01:42:27.941Z,0.20
2023-02-08T01:44:54.434Z,0.20
2023-02-08T01:47:20.910Z,0.20
2023-02-08T01:49:47.299Z,0.20
2023-02-08T01:52:13.703Z,0.20
2023-02-08T01:54:40.145Z,0.20
2023-02-08T01:57:06.588Z,0.20
2023-02-08T01:59:32.996Z,0.20
2023-02-08T02:01:59.493Z,0.20
2023-02-08T02:04:26.007Z,0.20
2023-02-08T02:06:52.455Z,0.20
2023-02-08T02:09:18.880Z,0.20
2023-02-08T02:11:45.267Z,0.20
2023-02-08T02:14:11.658Z,0.20
2023-02-08T02:16:38.083Z,0.20
2023-02-08T02:19:04.494Z,0.10
2023-02-08T02:21:30.904Z,0.10
2023-02-08T02:23:57.343Z,0.10
2023-02-08T02:26:23.905Z,0.10
2023-02-08T02:28:50.306Z,0.10
2023-02-08T02:31:16.810Z,0.10
2023-02-08T02:33:43.213Z,0.10
2023-02-08T02:36:09.640Z,0.00
2023-02-08T02:38:36.054Z,0.00
2023-02-08T02:41:02.446Z,0.00
2023-02-08T02:43:28.887Z,-0.10
2023-02-08T02:45:55.281Z,0.00
2023-02-08T02:48:21.682Z,-0.10
2023-02-08T02:50:48.084Z,-0.10
2023-02-08T02:53:14.516Z,-0.10
2023-02-08T02:55:40.984Z,-0.10
2023-02-08T02:58:07.444Z,-0.10
2023-02-08T03:00:33.837Z,-0.10
2023-02-08T03:03:00.291Z,-0.20
2023-02-08T03:05:26.710Z,-0.20
2023-02-08T03:07:53.095Z,-0.20
2023-02-08T03:10:19.496Z,-0.30
2023-02-08T03:12:45.907Z,-0.20
2023-02-08T03:15:12.347Z,-0.30
2023-02-08T03:17:38.784Z,-0.30
2023-02-08T03:20:05.191Z,-0.30
2023-02-08T03:22:31.623Z,-0.30
2023-02-08T03:24:58.058Z,-0.30
2023-02-08T03:27:24.452Z,-0.30
2023-02-08T03:29:50.895Z,-0.40
2023-02-08T03:32:17.320Z,-0.30
2023-02-08T03:34:43.736Z,-0.30
2023-02-08T03:37:10.210Z,-0.30
2023-02-08T03:39:36.678Z,-0.40
2023-02-08T03:42:03.103Z,-0.40
2023-02-08T03:44:29.534Z,-0.40
2023-02-08T03:46:55.949Z,-0.40
2023-02-08T03:49:22.439Z,-0.40
2023-02-08T03:51:48.951Z,-0.50
2023-02-08T03:54:15.403Z,-0.50
2023-02-08T03:56:41.836Z,-0.50
2023-02-08T03:59:08.265Z,-0.50
2023-02-08T04:01:34.736Z,-0.50
2023-02-08T04:04:01.488Z,-0.50
2023-02-08T04:06:27.954Z,-0.50
2023-02-08T04:08:54.404Z,-0.60
2023-02-08T04:11:20.882Z,-0.60
2023-02-08T04:13:47.257Z,-0.60
2023-02-08T04:16:13.664Z,-0.60
2023-02-08T04:18:40.090Z,-0.60
2023-02-08T04:21:06.517Z,-0.60
2023-02-08T04:23:32.989Z,-0.60
2023-02-08T04:25:59.386Z,-0.70
2023-02-08T04:28:25.909Z,-0.70
2023-02-08T04:30:52.443Z,-0.70
2023-02-08T04:33:18.929Z,-0.70
2023-02-08T04:35:45.316Z,-0.80
2023-02-08T04:38:11.690Z,-0.80
2023-02-08T04:40:38.335Z,-0.80
2023-02-08T04:43:04.866Z,-0.80
2023-02-08T04:45:31.276Z,-0.80
2023-02-08T04:47:59.158Z,-0.80
2023-02-08T04:50:25.673Z,-0.80
2023-02-08T04:52:52.114Z,-0.80
2023-02-08T04:55:18.744Z,-0.80
2023-02-08T04:57:45.144Z,-0.80
2023-02-08T05:00:11.571Z,-0.80
2023-02-08T05:02:38.009Z,-0.80
2023-02-08T05:05:04.544Z,-0.70
2023-02-08T05:07:30.971Z,-0.70
2023-02-08T05:09:57.387Z,-0.80
2023-02-08T05:12:23.848Z,-0.80
2023-02-08T05:14:50.331Z,-0.80
2023-02-08T05:17:16.761Z,-0.80
2023-02-08T05:19:43.136Z,-0.80
2023-02-08T05:22:09.556Z,-0.80
2023-02-08T05:24:36.021Z,-0.80
2023-02-08T05:27:02.448Z,-0.80
2023-02-08T05:29:28.948Z,-0.80
2023-02-08T05:31:55.713Z,-0.80
2023-02-08T05:34:22.240Z,-0.90
2023-02-08T05:36:48.893Z,-0.80
2023-02-08T05:39:15.317Z,-0.80
2023-02-08T05:41:41.712Z,-0.80
2023-02-08T05:44:08.149Z,-0.80
2023-02-08T05:46:36.528Z,-0.80
2023-02-08T05:49:04.425Z,-0.80
2023-02-08T05:51:30.834Z,-0.70
2023-02-08T05:53:57.269Z,-0.70
2023-02-08T05:56:23.695Z,-0.70
2023-02-08T05:58:50.143Z,-0.60
2023-02-08T06:01:16.584Z,-0.60
2023-02-08T06:03:43.035Z,-0.60
2023-02-08T06:06:09.436Z,-0.60
2023-02-08T06:08:35.856Z,-0.60
2023-02-08T06:11:02.462Z,-0.60
2023-02-08T06:13:28.973Z,-0.60
2023-02-08T06:15:55.380Z,-0.60
2023-02-08T06:18:21.771Z,-0.60
2023-02-08T06:20:48.213Z,-0.60
2023-02-08T06:23:14.620Z,-0.60
2023-02-08T06:25:41.012Z,-0.60
2023-02-08T06:28:07.493Z,-0.60
2023-02-08T06:30:33.916Z,-0.60
2023-02-08T06:33:00.372Z,-0.60
2023-02-08T06:35:26.861Z,-0.60
2023-02-08T06:37:53.235Z,-0.60
2023-02-08T06:40:19.650Z,-0.60
2023-02-08T06:42:46.098Z,-0.50
2023-02-08T06:45:13.747Z,-0.50
2023-02-08T06:47:40.267Z,-0.50
2023-02-08T06:50:06.707Z,-0.50
2023-02-08T06:52:33.128Z,-0.50
2023-02-08T06:54:59.505Z,-0.40
2023-02-08T06:57:25.911Z,-0.40
2023-02-08T06:59:52.323Z,-0.40
2023-02-08T07:02:18.781Z,-0.40
2023-02-08T07:04:45.243Z,-0.40
2023-02-08T07:07:11.677Z,-0.40
2023-02-08T07:09:38.094Z,-0.40
2023-02-08T07:12:04.563Z,-0.40
2023-02-08T07:14:30.989Z,-0.40
2023-02-08T07:16:57.437Z,-0.40
2023-02-08T07:19:24.066Z,-0.40
2023-02-08T07:21:50.521Z,-0.40
2023-02-08T07:24:17.278Z,-0.40
2023-02-08T07:26:43.950Z,-0.40
2023-02-08T07:29:10.436Z,-0.40
2023-02-08T07:31:36.891Z,-0.30
2023-02-08T07:34:03.426Z,-0.30
2023-02-08T07:36:29.857Z,-0.20
2023-02-08T07:38:56.280Z,-0.20
2023-02-08T07:41:22.693Z,-0.20
2023-02-08T07:43:49.126Z,-0.10
2023-02-08T07:46:15.627Z,0.00
2023-02-08T07:48:42.067Z,0.10
2023-02-08T07:51:08.535Z,0.20
2023-02-08T07:53:34.997Z,0.20
2023-02-08T07:56:01.493Z,0.30
2023-02-08T07:58:28.062Z,0.30
2023-02-08T08:00:54.445Z,0.40
2023-02-08T08:03:20.871Z,0.30
2023-02-08T08:05:47.591Z,0.40
2023-02-08T08:08:14.052Z,0.40
2023-02-08T08:10:40.734Z,0.50
2023-02-08T08:13:07.263Z,0.50
2023-02-08T08:15:33.705Z,0.60
2023-02-08T08:18:00.169Z,0.70
2023-02-08T08:20:26.601Z,0.70
2023-02-08T08:22:52.992Z,0.80
2023-02-08T08:25:19.430Z,0.80
2023-02-08T08:27:45.907Z,0.90
2023-02-08T08:30:12.325Z,1.00
2023-02-08T08:32:38.751Z,1.10
2023-02-08T08:35:05.173Z,1.20
2023-02-08T08:37:31.601Z,1.30
2023-02-08T08:39:58.053Z,1.40
2023-02-08T08:42:24.460Z,1.50
2023-02-08T08:44:50.914Z,1.60
2023-02-08T08:47:17.682Z,1.70
2023-02-08T08:49:44.073Z,1.80
2023-02-08T08:52:10.473Z,1.90
2023-02-08T08:54:36.904Z,2.00
2023-02-08T08:57:03.369Z,2.10
2023-02-08T08:59:29.829Z,2.30
2023-02-08T09:01:56.291Z,2.40
2023-02-08T09:04:22.764Z,2.50
2023-02-08T09:06:49.175Z,2.60
2023-02-08T09:09:15.639Z,2.80
2023-02-08T09:11:42.065Z,3.00
2023-02-08T09:14:08.526Z,3.20
2023-02-08T09:16:34.972Z,3.50
2023-02-08T09:19:01.532Z,3.70
2023-02-08T09:21:28.175Z,3.90
2023-02-08T09:23:54.622Z,4.00
2023-02-08T09:26:21.049Z,4.20
2023-02-08T09:28:47.608Z,4.40
2023-02-08T09:31:14.161Z,4.50
2023-02-08T09:33:40.617Z,4.70
2023-02-08T09:36:07.057Z,4.90
2023-02-08T09:38:34.739Z,5.00
2023-02-08T09:41:01.397Z,5.30
2023-02-08T09:43:27.955Z,5.50
2023-02-08T09:45:59.862Z,5.60
2023-02-08T09:48:26.871Z,5.80
2023-02-08T09:50:53.283Z,5.90
2023-02-08T09:53:19.730Z,6.00
2023-02-08T09:55:46.184Z,6.10
2023-02-08T09:58:12.656Z,6.20
2023-02-08T10:00:39.242Z,6.30
2023-02-08T10:03:05.706Z,6.20
2023-02-08T10:05:32.121Z,6.20
2023-02-08T10:07:58.762Z,6.20
2023-02-08T10:10:25.222Z,6.30
2023-02-08T10:12:51.691Z,6.40
2023-02-08T10:15:18.128Z,6.60
2023-02-08T10:17:44.599Z,6.60
2023-02-08T10:20:10.998Z,6.60
2023-02-08T10:22:37.426Z,6.50
2023-02-08T10:25:03.860Z,6.50
2023-02-08T10:27:30.299Z,6.40
2023-02-08T10:29:56.689Z,6.30
2023-02-08T10:32:23.075Z,6.30
2023-02-08T10:34:49.494Z,6.40
2023-02-08T10:37:15.908Z,6.50
2023-02-08T10:39:42.348Z,6.60
2023-02-08T10:42:08.791Z,6.70
2023-02-08T10:44:35.247Z,6.80
2023-02-08T10:47:01.716Z,6.90
2023-02-08T10:49:28.183Z,7.00
2023-02-08T10:51:54.743Z,7.10
2023-02-08T10:54:21.257Z,7.20
2023-02-08T10:56:47.778Z,7.30
2023-02-08T10:59:14.222Z,7.50
2023-02-08T11:01:40.648Z,7.70
2023-02-08T11:04:07.065Z,7.80
2023-02-08T11:06:33.493Z,7.90
2023-02-08T11:08:59.906Z,8.10
2023-02-08T11:11:26.284Z,8.30
2023-02-08T11:13:52.709Z,8.40
2023-02-08T11:16:19.230Z,8.40
2023-02-08T11:18:45.703Z,8.40
2023-02-08T11:21:12.200Z,8.30
2023-02-08T11:23:38.626Z,8.10
2023-02-08T11:26:05.012Z,8.00
2023-02-08T11:28:31.449Z,7.90
2023-02-08T11:30:58.119Z,7.90
2023-02-08T11:33:24.587Z,7.80
2023-02-08T11:35:50.980Z,7.70
2023-02-08T11:38:17.593Z,7.50
2023-02-08T11:40:44.041Z,7.40
2023-02-08T11:43:10.491Z,7.30
2023-02-08T11:45:36.895Z,7.20
2023-02-08T11:48:03.289Z,7.10
2023-02-08T11:50:29.715Z,7.00
2023-02-08T11:52:56.201Z,6.90
2023-02-08T11:55:22.660Z,6.90
2023-02-08T11:57:49.128Z,6.80
2023-02-08T12:00:15.504Z,6.80
2023-02-08T12:02:41.957Z,6.70
2023-02-08T12:05:08.420Z,6.70
2023-02-08T12:07:34.827Z,6.70
2023-02-08T12:10:01.266Z,6.70
2023-02-08T12:12:27.687Z,6.60
2023-02-08T12:14:54.063Z,6.60
2023-02-08T12:17:20.465Z,6.60
2023-02-08T12:19:46.873Z,6.60
2023-02-08T12:22:13.310Z,6.60
2023-02-08T12:24:39.752Z,6.60
2023-02-08T12:27:06.177Z,6.60
2023-02-08T12:29:45.733Z,6.60
2023-02-08T12:32:13.551Z,6.60
2023-02-08T12:34:39.974Z,6.50
2023-02-08T12:37:06.426Z,6.50
2023-02-08T12:39:32.859Z,6.50
2023-02-08T12:41:59.290Z,6.50
2023-02-08T12:44:25.713Z,6.50
2023-02-08T12:46:52.117Z,6.50
2023-02-08T12:49:18.805Z,6.50
2023-02-08T12:51:45.301Z,6.50
2023-02-08T12:54:11.764Z,6.50
2023-02-08T12:56:38.196Z,6.40
2023-02-08T12:59:13.182Z,6.40
2023-02-08T13:01:40.361Z,6.40
2023-02-08T13:04:06.758Z,6.40
2023-02-08T13:06:33.144Z,6.40
2023-02-08T13:08:59.669Z,6.40
2023-02-08T13:11:26.108Z,6.50
2023-02-08T13:13:52.562Z,6.40
2023-02-08T13:16:19.032Z,6.50
2023-02-08T13:18:45.442Z,6.50
2023-02-08T13:21:11.904Z,6.40
2023-02-08T13:23:50.682Z,6.40
2023-02-08T13:26:18.983Z,6.40
2023-02-08T13:28:45.428Z,6.40
2023-02-08T13:31:12.032Z,6.40
2023-02-08T13:33:41.054Z,6.40
2023-02-08T13:36:09.091Z,6.40
2023-02-08T13:38:35.465Z,6.40
2023-02-08T13:41:01.874Z,6.40
2023-02-08T13:43:35.453Z,6.40
2023-02-08T13:46:03.075Z,6.40
2023-02-08T13:48:29.521Z,6.40
2023-02-08T13:50:56.230Z,6.40
2023-02-08T13:53:22.627Z,6.40
2023-02-08T13:55:49.158Z,6.40
2023-02-08T13:58:15.598Z,6.40
2023-02-08T14:00:42.378Z,6.40
2023-02-08T14:03:09.119Z,6.40
2023-02-08T14:05:35.553Z,6.40
2023-02-08T14:08:01.977Z,6.40
2023-02-08T14:10:28.390Z,6.40
2023-02-08T14:12:54.797Z,6.40
2023-02-08T14:15:21.173Z,6.40
2023-02-08T14:17:47.708Z,6.40
2023-02-08T14:20:14.101Z,6.40
2023-02-08T14:22:40.570Z,6.40
2023-02-08T14:25:06.967Z,6.40
2023-02-08T14:27:33.421Z,6.40
2023-02-08T14:29:59.822Z,6.30
2023-02-08T14:32:26.268Z,6.40
2023-02-08T14:34:52.726Z,6.30
2023-02-08T14:37:19.174Z,6.30
2023-02-08T14:39:45.585Z,6.30
2023-02-08T14:42:11.961Z,6.30
2023-02-08T14:44:38.414Z,6.30
2023-02-08T14:47:04.911Z,6.30
2023-02-08T14:49:31.392Z,6.30
2023-02-08T14:51:57.809Z,6.30
2023-02-08T14:54:24.271Z,6.30
2023-02-08T14:56:50.657Z,6.30
2023-02-08T14:59:17.073Z,6.30
2023-02-08T15:01:44.448Z,6.20
2023-02-08T15:04:10.886Z,6.30
2023-02-08T15:06:37.349Z,6.20
2023-02-08T15:09:03.798Z,6.20
2023-02-08T15:11:30.246Z,6.20
2023-02-08T15:13:56.683Z,6.10
2023-02-08T15:16:23.152Z,6.10
2023-02-08T15:18:49.684Z,6.10
2023-02-08T15:21:16.158Z,6.10
2023-02-08T15:23:42.590Z,6.10
2023-02-08T15:26:08.985Z,6.00
2023-02-08T15:28:35.355Z,6.00
2023-02-08T15:31:01.817Z,6.00
2023-02-08T15:33:28.233Z,6.00
2023-02-08T15:35:54.674Z,6.00
2023-02-08T15:38:21.132Z,6.00
2023-02-08T15:40:47.710Z,6.00
2023-02-08T15:43:14.409Z,5.90
2023-02-08T15:45:40.967Z,5.90
2023-02-08T15:48:07.405Z,5.90
2023-02-08T15:50:33.791Z,5.80
2023-02-08T15:53:00.234Z,5.80
2023-02-08T15:55:26.666Z,5.70
2023-02-08T15:57:53.107Z,5.70
2023-02-08T16:00:19.562Z,5.70
2023-02-08T16:02:45.984Z,5.60
2023-02-08T16:05:12.419Z,5.60
2023-02-08T16:07:38.896Z,5.50
2023-02-08T16:10:05.404Z,5.50
2023-02-08T16:12:31.848Z,5.50
2023-02-08T16:14:58.237Z,5.40
2023-02-08T16:17:24.625Z,5.40
2023-02-08T16:19:53.125Z,5.30
2023-02-08T16:22:19.662Z,5.30
2023-02-08T16:24:46.060Z,5.20
2023-02-08T16:27:12.484Z,5.10
2023-02-08T16:29:38.887Z,5.10
2023-02-08T16:32:09.787Z,5.10
2023-02-08T16:34:39.124Z,5.00
2023-02-08T16:37:05.515Z,5.00
2023-02-08T16:39:31.888Z,4.90
2023-02-08T16:42:13.933Z,4.90
2023-02-08T16:44:41.638Z,4.80
2023-02-08T16:47:08.087Z,4.80
2023-02-08T16:49:34.487Z,4.70
2023-02-08T16:52:00.881Z,4.70
2023-02-08T16:54:28.473Z,4.70
2023-02-08T16:56:55.019Z,4.60
2023-02-08T16:59:21.554Z,4.50
2023-02-08T17:01:48.241Z,4.40
2023-02-08T17:04:14.695Z,4.40
2023-02-08T17:06:41.158Z,4.30
2023-02-08T17:09:07.615Z,4.20
2023-02-08T17:11:34.011Z,4.20
2023-02-08T17:14:00.475Z,4.10
2023-02-08T17:16:26.878Z,4.00
2023-02-08T17:18:53.265Z,4.00
2023-02-08T17:21:19.643Z,3.90
2023-02-08T17:23:46.078Z,3.90
2023-02-08T17:26:12.469Z,3.80
2023-02-08T17:28:38.856Z,3.70
2023-02-08T17:31:05.345Z,3.60
2023-02-08T17:33:31.805Z,3.60
2023-02-08T17:35:58.235Z,3.60
2023-02-08T17:38:24.713Z,3.50
2023-02-08T17:40:51.239Z,3.50
2023-02-08T17:43:17.829Z,3.50
2023-02-08T17:45:44.830Z,3.40
2023-02-08T17:48:11.448Z,3.30
2023-02-08T17:50:37.879Z,3.30
2023-02-08T17:53:04.297Z,3.20
2023-02-08T17:55:30.762Z,3.20
2023-02-08T17:57:57.237Z,3.20
2023-02-08T18:00:23.740Z,3.10
2023-02-08T18:02:50.602Z,3.00
2023-02-08T18:05:17.252Z,3.00
2023-02-08T18:07:43.684Z,3.00
2023-02-08T18:10:10.117Z,3.00
2023-02-08T18:12:36.508Z,3.00
2023-02-08T18:15:02.927Z,3.00
2023-02-08T18:17:29.403Z,3.00
2023-02-08T18:19:55.841Z,2.90
2023-02-08T18:22:24.735Z,3.00
2023-02-08T18:24:51.530Z,2.90
2023-02-08T18:27:17.963Z,2.90
2023-02-08T18:29:44.365Z,2.90
2023-02-08T18:32:10.847Z,2.90
2023-02-08T18:34:37.255Z,2.80
2023-02-08T18:37:03.699Z,2.80
2023-02-08T18:39:30.097Z,2.80
2023-02-08T18:41:56.569Z,2.80
2023-02-08T18:44:22.966Z,2.80
2023-02-08T18:46:49.377Z,2.70
2023-02-08T18:49:15.805Z,2.70
2023-02-08T18:51:42.170Z,2.70
2023-02-08T18:54:08.626Z,2.70
2023-02-08T18:56:35.021Z,2.70
2023-02-08T18:59:01.432Z,2.60
2023-02-08T19:01:27.798Z,2.60
2023-02-08T19:03:54.381Z,2.60
2023-02-08T19:06:20.858Z,2.60
2023-02-08T19:08:47.656Z,2.60
2023-02-08T19:11:15.251Z,2.60
2023-02-08T19:13:41.789Z,2.50
2023-02-08T19:16:08.228Z,2.50
2023-02-08T19:18:34.622Z,2.50
2023-02-08T19:21:01.104Z,2.50
2023-02-08T19:23:27.543Z,2.50
2023-02-08T19:25:53.985Z,2.50
2023-02-08T19:28:20.724Z,2.50
2023-02-08T19:30:47.429Z,2.50
2023-02-08T19:33:14.039Z,2.40
2023-02-08T19:35:40.491Z,2.40
2023-02-08T19:38:06.931Z,2.40
2023-02-08T19:40:33.336Z,2.40
2023-02-08T19:42:59.789Z,2.30
2023-02-08T19:45:26.296Z,2.30
2023-02-08T19:47:52.724Z,2.30
2023-02-08T19:50:19.130Z,2.30
2023-02-08T19:52:45.568Z,2.20
2023-02-08T19:55:11.967Z,2.20
2023-02-08T19:57:38.416Z,2.10
2023-02-08T20:00:11.236Z,2.10
2023-02-08T20:02:44.219Z,2.10
2023-02-08T20:05:10.618Z,2.10
2023-02-08T20:07:37.033Z,2.10
2023-02-08T20:10:03.494Z,2.10
2023-02-08T20:12:29.889Z,2.10
2023-02-08T20:14:56.258Z,2.00
2023-02-08T20:17:22.700Z,2.00
2023-02-08T20:19:49.086Z,2.00
2023-02-08T20:22:15.472Z,2.00
2023-02-08T20:24:41.894Z,2.00
2023-02-08T20:27:08.308Z,1.90
2023-02-08T20:29:34.702Z,1.90
2023-02-08T20:32:01.169Z,1.90
2023-02-08T20:34:27.629Z,1.90
2023-02-08T20:37:06.245Z,1.90
2023-02-08T20:39:35.034Z,1.90
2023-02-08T20:42:01.500Z,1.80
2023-02-08T20:44:27.994Z,1.80
2023-02-08T20:46:54.497Z,1.80
2023-02-08T20:49:20.962Z,1.70
2023-02-08T20:51:47.715Z,1.70
2023-02-08T20:54:14.170Z,1.70
2023-02-08T20:56:40.569Z,1.70
2023-02-08T20:59:06.999Z,1.60
2023-02-08T21:01:33.522Z,1.60
2023-02-08T21:03:59.991Z,1.70
2023-02-08T21:06:26.482Z,1.70
2023-02-08T21:08:53.038Z,1.70
2023-02-08T21:11:19.479Z,1.70
2023-02-08T21:13:45.898Z,1.70
2023-02-08T21:16:12.422Z,1.70
2023-02-08T21:18:38.873Z,1.60
2023-02-08T21:21:05.330Z,1.60
2023-02-08T21:23:31.700Z,1.60
2023-02-08T21:25:58.130Z,1.60
2023-02-08T21:28:24.670Z,1.50
2023-02-08T21:30:51.413Z,1.60
2023-02-08T21:33:17.957Z,1.50
2023-02-08T21:35:44.361Z,1.50
2023-02-08T21:38:10.757Z,1.50
2023-02-08T21:40:37.212Z,1.50
2023-02-08T21:43:03.643Z,1.50
2023-02-08T21:45:30.123Z,1.50
2023-02-08T21:47:56.565Z,1.50
2023-02-08T21:50:23.003Z,1.50
2023-02-08T21:52:49.432Z,1.40
2023-02-08T21:55:15.866Z,1.40
2023-02-08T21:57:42.330Z,1.50
2023-02-08T22:00:08.734Z,1.50
2023-02-08T22:02:35.178Z,1.50
2023-02-08T22:05:01.626Z,1.50
2023-02-08T22:07:28.065Z,1.50
2023-02-08T22:09:54.475Z,1.50
2023-02-08T22:12:21.022Z,1.50
2023-02-08T22:14:47.796Z,1.50
2023-02-08T22:17:14.545Z,1.50
2023-02-08T22:19:40.932Z,1.50
2023-02-08T22:22:07.356Z,1.50
2023-02-08T22:24:33.770Z,1.50
2023-02-08T22:27:00.143Z,1.40
2023-02-08T22:29:26.532Z,1.50
2023-02-08T22:31:53.077Z,1.40
2023-02-08T22:34:19.590Z,1.40
2023-02-08T22:36:46.140Z,1.40
2023-02-08T22:39:12.541Z,1.40
2023-02-08T22:41:38.934Z,1.40
2023-02-08T22:44:05.362Z,1.30
2023-02-08T22:46:31.843Z,1.30
2023-02-08T22:48:58.346Z,1.30
2023-02-08T22:51:24.761Z,1.30
2023-02-08T22:53:51.217Z,1.30
2023-02-08T22:56:17.896Z,1.30
2023-02-08T22:58:44.517Z,1.30
2023-02-08T23:01:10.946Z,1.30
2023-02-08T23:03:37.371Z,1.30
2023-02-08T23:06:03.824Z,1.30
2023-02-08T23:08:30.245Z,1.30
2023-02-08T23:10:56.743Z,1.30
2023-02-08T23:13:23.176Z,1.30
2023-02-08T23:15:49.575Z,1.30
2023-02-08T23:18:16.049Z,1.30
2023-02-08T23:20:42.635Z,1.30
2023-02-08T23:23:09.238Z,1.30
2023-02-08T23:25:35.622Z,1.30
2023-02-08T23:28:02.091Z,1.20
2023-02-08T23:30:28.533Z,1.30
2023-02-08T23:32:54.955Z,1.30
2023-02-08T23:35:21.361Z,1.20
2023-02-08T23:37:47.826Z,1.30
2023-02-08T23:40:14.598Z,1.20
2023-02-08T23:42:41.016Z,1.30
2023-02-08T23:45:07.401Z,1.30
2023-02-08T23:47:33.855Z,1.20
2023-02-08T23:50:00.268Z,1.30
2023-02-08T23:52:26.683Z,1.30
2023-02-08T23:54:53.144Z,1.30
2023-02-08T23:57:19.597Z,1.30
2023-02-08T23:59:46.069Z,1.30
